createdAt,value
2017-03-18T00:00:57.904Z,6.7
2017-03-18T00:02:08.894Z,6.72
2017-03-18T00:03:19.887Z,6.49
2017-03-18T00:04:30.906Z,6.49
2017-03-18T00:05:42.139Z,6.47
2017-03-18T00:06:53.334Z,6.54
2017-03-18T00:08:04.536Z,6.49
2017-03-18T00:09:15.529Z,6.4
2017-03-18T00:10:26.521Z,6.43
2017-03-18T00:11:37.546Z,6.55
2017-03-18T00:12:48.544Z,6.54
2017-03-18T00:13:59.537Z,6.54
2017-03-18T00:15:10.554Z,6.49
2017-03-18T00:16:21.787Z,6.51
2017-03-18T00:17:32.777Z,6.49
2017-03-18T00:18:43.780Z,6.4
2017-03-18T00:19:54.777Z,6.44
2017-03-18T00:21:05.765Z,6.39
2017-03-18T00:22:17.003Z,6.33
2017-03-18T00:23:28.196Z,6.21
2017-03-18T00:24:39.199Z,6.26
2017-03-18T00:25:50.186Z,6.14
2017-03-18T00:27:01.174Z,6.15
2017-03-18T00:28:12.165Z,6.15
2017-03-18T00:29:23.365Z,6.18
2017-03-18T00:30:34.358Z,6.24
2017-03-18T00:31:45.353Z,6.17
2017-03-18T00:32:56.348Z,6.18
2017-03-18T00:34:07.594Z,6
2017-03-18T00:35:18.592Z,5.99
2017-03-18T00:36:29.577Z,5.99
2017-03-18T00:37:40.769Z,5.88
2017-03-18T00:38:51.765Z,5.87
2017-03-18T00:40:02.960Z,5.87
2017-03-18T00:41:13.939Z,5.91
2017-03-18T00:42:24.930Z,5.84
2017-03-18T00:43:36.172Z,5.84
2017-03-18T00:44:47.163Z,5.82
2017-03-18T00:45:58.347Z,5.82
2017-03-18T00:47:09.331Z,5.87
2017-03-18T00:48:20.321Z,5.87
2017-03-18T00:49:31.311Z,5.75
2017-03-18T00:50:42.302Z,5.77
2017-03-18T00:51:53.286Z,5.8
2017-03-18T00:53:04.275Z,5.77
2017-03-18T00:54:15.318Z,5.85
2017-03-18T00:55:26.757Z,5.91
2017-03-18T00:56:38.147Z,5.91
2017-03-18T00:57:49.747Z,5.99
2017-03-18T00:59:00.951Z,5.92
2017-03-18T01:00:11.945Z,5.87
2017-03-18T01:01:22.968Z,5.85
2017-03-18T01:02:33.950Z,5.8
2017-03-18T01:03:44.937Z,5.77
2017-03-18T01:04:56.206Z,5.73
2017-03-18T01:06:07.208Z,5.91
2017-03-18T01:07:18.196Z,5.78
2017-03-18T01:08:29.578Z,5.84
2017-03-18T01:09:40.572Z,5.85
2017-03-18T01:10:51.607Z,5.95
2017-03-18T01:12:02.594Z,5.85
2017-03-18T01:13:13.582Z,5.77
2017-03-18T01:14:24.791Z,5.72
2017-03-18T01:15:35.987Z,5.8
2017-03-18T01:16:47.170Z,5.73
2017-03-18T01:17:58.363Z,5.75
2017-03-18T01:19:09.558Z,5.82
2017-03-18T01:20:20.550Z,5.91
2017-03-18T01:21:31.550Z,5.84
2017-03-18T01:22:42.593Z,5.84
2017-03-18T01:23:53.605Z,5.92
2017-03-18T01:25:04.594Z,5.87
2017-03-18T01:26:15.578Z,5.88
2017-03-18T01:27:26.565Z,5.95
2017-03-18T01:28:37.555Z,5.92
2017-03-18T01:29:48.555Z,5.92
2017-03-18T01:30:59.536Z,5.87
2017-03-18T01:32:10.982Z,5.88
2017-03-18T01:33:21.971Z,5.95
2017-03-18T01:34:32.967Z,5.89
2017-03-18T01:35:44.568Z,5.98
2017-03-18T01:36:55.553Z,6.02
2017-03-18T01:38:06.526Z,6.05
2017-03-18T01:39:17.512Z,6.09
2017-03-18T01:40:28.500Z,5.92
2017-03-18T01:41:39.483Z,6.05
2017-03-18T01:42:50.722Z,5.92
2017-03-18T01:44:01.710Z,6.03
2017-03-18T01:45:12.702Z,6.05
2017-03-18T01:46:23.688Z,5.89
2017-03-18T01:47:34.672Z,5.96
2017-03-18T01:48:45.668Z,5.99
2017-03-18T01:49:56.660Z,6.07
2017-03-18T01:51:07.649Z,6.13
2017-03-18T01:52:18.834Z,6.17
2017-03-18T01:53:30.086Z,6.15
2017-03-18T01:54:41.097Z,6.21
2017-03-18T01:55:52.084Z,6.21
2017-03-18T01:57:03.063Z,6.17
2017-03-18T01:58:14.047Z,6.28
2017-03-18T01:59:25.095Z,6.26
2017-03-18T02:00:36.075Z,6.26
2017-03-18T02:01:47.063Z,6.36
2017-03-18T02:02:58.059Z,6.4
2017-03-18T02:04:09.078Z,6.33
2017-03-18T02:05:20.113Z,6.39
2017-03-18T02:06:31.306Z,6.43
2017-03-18T02:07:42.295Z,6.37
2017-03-18T02:08:53.289Z,6.43
2017-03-18T02:10:04.280Z,6.51
2017-03-18T02:11:15.277Z,6.46
2017-03-18T02:12:26.262Z,6.54
2017-03-18T02:13:37.255Z,6.55
2017-03-18T02:14:48.453Z,6.54
2017-03-18T02:15:59.492Z,6.57
2017-03-18T02:17:10.480Z,6.68
2017-03-18T02:18:21.475Z,6.76
2017-03-18T02:19:32.460Z,6.6
2017-03-18T02:20:43.645Z,6.72
2017-03-18T02:21:54.828Z,6.7
2017-03-18T02:23:05.817Z,6.67
2017-03-18T02:24:16.813Z,6.72
2017-03-18T02:25:27.800Z,6.62
2017-03-18T02:26:38.828Z,6.73
2017-03-18T02:27:49.827Z,6.75
2017-03-18T02:29:00.832Z,6.76
2017-03-18T02:30:11.826Z,6.79
2017-03-18T02:31:22.812Z,6.7
2017-03-18T02:32:33.808Z,6.75
2017-03-18T02:33:44.797Z,6.73
2017-03-18T02:34:55.780Z,6.78
2017-03-18T02:36:06.769Z,6.72
2017-03-18T02:37:18.007Z,6.82
2017-03-18T02:38:28.996Z,6.79
2017-03-18T02:39:40.194Z,6.85
2017-03-18T02:40:51.182Z,6.86
2017-03-18T02:42:02.175Z,6.9
2017-03-18T02:43:13.200Z,6.83
2017-03-18T02:44:24.253Z,6.94
2017-03-18T02:45:35.446Z,6.88
2017-03-18T02:46:46.635Z,6.83
2017-03-18T02:47:57.681Z,6.9
2017-03-18T02:49:08.674Z,6.88
2017-03-18T02:50:19.656Z,6.91
2017-03-18T02:51:30.646Z,6.91
2017-03-18T02:52:41.629Z,6.94
2017-03-18T02:53:52.625Z,6.91
2017-03-18T02:55:03.626Z,6.97
2017-03-18T02:56:14.605Z,6.95
2017-03-18T02:57:25.601Z,6.98
2017-03-18T02:58:36.588Z,6.94
2017-03-18T02:59:47.578Z,6.88
2017-03-18T03:00:58.570Z,6.82
2017-03-18T03:02:09.568Z,6.83
2017-03-18T03:03:20.560Z,6.83
2017-03-18T03:04:31.605Z,6.79
2017-03-18T03:05:42.802Z,6.73
2017-03-18T03:06:53.803Z,6.76
2017-03-18T03:08:04.791Z,6.82
2017-03-18T03:09:15.782Z,6.8
2017-03-18T03:10:26.771Z,6.86
2017-03-18T03:11:37.753Z,6.88
2017-03-18T03:12:48.749Z,6.91
2017-03-18T03:13:59.750Z,6.88
2017-03-18T03:15:10.944Z,6.97
2017-03-18T03:16:21.963Z,6.88
2017-03-18T03:17:33.554Z,6.91
2017-03-18T03:18:44.563Z,6.9
2017-03-18T03:19:55.820Z,6.9
2017-03-18T03:21:06.808Z,6.94
2017-03-18T03:22:17.802Z,6.93
2017-03-18T03:23:28.796Z,6.97
2017-03-18T03:24:39.993Z,6.93
2017-03-18T03:25:51.027Z,6.98
2017-03-18T03:27:02.015Z,6.94
2017-03-18T03:28:13.211Z,6.88
2017-03-18T03:29:24.204Z,6.85
2017-03-18T03:30:35.593Z,6.94
2017-03-18T03:31:46.582Z,6.83
2017-03-18T03:32:57.572Z,6.91
2017-03-18T03:34:08.763Z,6.82
2017-03-18T03:35:19.742Z,6.86
2017-03-18T03:36:30.816Z,6.88
2017-03-18T03:37:41.829Z,6.93
2017-03-18T03:38:52.825Z,6.94
2017-03-18T03:40:03.838Z,6.94
2017-03-18T03:41:15.023Z,7.01
2017-03-18T03:42:26.008Z,7.01
2017-03-18T03:43:37.204Z,7.01
2017-03-18T03:44:48.198Z,7.12
2017-03-18T03:45:59.387Z,7.05
2017-03-18T03:47:10.404Z,7.13
2017-03-18T03:48:21.395Z,7.26
2017-03-18T03:49:32.386Z,7.27
2017-03-18T03:50:43.376Z,7.21
2017-03-18T03:51:54.358Z,7.19
2017-03-18T03:53:05.400Z,7.29
2017-03-18T03:54:16.387Z,7.27
2017-03-18T03:55:27.388Z,7.21
2017-03-18T03:56:38.571Z,7.22
2017-03-18T03:57:49.572Z,7.22
2017-03-18T03:59:00.566Z,7.31
2017-03-18T04:00:11.558Z,7.26
2017-03-18T04:01:22.546Z,7.36
2017-03-18T04:02:33.541Z,7.4
2017-03-18T04:03:44.789Z,7.23
2017-03-18T04:04:55.783Z,7.37
2017-03-18T04:06:06.783Z,7.34
2017-03-18T04:07:17.770Z,7.39
2017-03-18T04:08:28.754Z,7.41
2017-03-18T04:09:39.754Z,7.36
2017-03-18T04:10:50.931Z,7.31
2017-03-18T04:12:01.924Z,7.37
2017-03-18T04:13:12.920Z,7.36
2017-03-18T04:14:23.956Z,7.45
2017-03-18T04:15:34.948Z,7.44
2017-03-18T04:16:46.143Z,7.48
2017-03-18T04:17:57.335Z,7.52
2017-03-18T04:19:08.328Z,7.49
2017-03-18T04:20:19.328Z,7.47
2017-03-18T04:21:30.320Z,7.47
2017-03-18T04:22:41.315Z,7.47
2017-03-18T04:23:52.321Z,7.45
2017-03-18T04:25:03.359Z,7.58
2017-03-18T04:26:14.381Z,7.59
2017-03-18T04:27:25.374Z,7.58
2017-03-18T04:28:36.374Z,7.54
2017-03-18T04:29:47.581Z,7.49
2017-03-18T04:30:58.983Z,7.59
2017-03-18T04:32:09.978Z,7.63
2017-03-18T04:33:20.976Z,7.59
2017-03-18T04:34:31.964Z,7.56
2017-03-18T04:35:42.952Z,7.68
2017-03-18T04:36:54.354Z,7.67
2017-03-18T04:38:05.348Z,7.68
2017-03-18T04:39:16.344Z,7.75
2017-03-18T04:40:27.345Z,7.74
2017-03-18T04:41:38.394Z,7.74
2017-03-18T04:42:49.390Z,7.78
2017-03-18T04:44:00.382Z,7.71
2017-03-18T04:45:11.368Z,7.75
2017-03-18T04:46:22.358Z,7.8
2017-03-18T04:47:33.347Z,7.77
2017-03-18T04:48:44.352Z,7.78
2017-03-18T04:49:55.341Z,7.86
2017-03-18T04:51:06.390Z,7.82
2017-03-18T04:52:17.374Z,7.82
2017-03-18T04:53:28.371Z,7.89
2017-03-18T04:54:39.359Z,7.77
2017-03-18T04:55:50.352Z,7.85
2017-03-18T04:57:01.334Z,7.78
2017-03-18T04:58:12.322Z,7.82
2017-03-18T04:59:23.334Z,7.88
2017-03-18T05:00:34.325Z,7.88
2017-03-18T05:01:45.773Z,7.8
2017-03-18T05:02:56.767Z,7.86
2017-03-18T05:04:07.764Z,7.82
2017-03-18T05:05:18.757Z,7.92
2017-03-18T05:06:29.747Z,7.83
2017-03-18T05:07:40.943Z,7.85
2017-03-18T05:08:51.930Z,7.88
2017-03-18T05:10:02.925Z,7.89
2017-03-18T05:11:13.923Z,7.83
2017-03-18T05:12:25.365Z,7.99
2017-03-18T05:13:36.556Z,7.99
2017-03-18T05:14:47.552Z,7.98
2017-03-18T05:15:58.757Z,7.89
2017-03-18T05:17:09.751Z,7.91
2017-03-18T05:18:20.815Z,7.93
2017-03-18T05:19:31.815Z,7.95
2017-03-18T05:20:42.835Z,8.03
2017-03-18T05:21:53.829Z,7.96
2017-03-18T05:23:05.031Z,7.93
2017-03-18T05:24:16.220Z,7.96
2017-03-18T05:25:27.209Z,7.98
2017-03-18T05:26:38.204Z,7.95
2017-03-18T05:27:49.190Z,7.92
2017-03-18T05:29:00.188Z,7.96
2017-03-18T05:30:11.428Z,7.96
2017-03-18T05:31:22.625Z,8.11
2017-03-18T05:32:33.628Z,8.07
2017-03-18T05:33:44.615Z,8.06
2017-03-18T05:34:55.608Z,8.09
2017-03-18T05:36:06.797Z,8.06
2017-03-18T05:37:17.779Z,8.1
2017-03-18T05:38:28.978Z,8.11
2017-03-18T05:39:40.034Z,8.21
2017-03-18T05:40:51.219Z,8.1
2017-03-18T05:42:02.408Z,8.13
2017-03-18T05:43:13.398Z,8.11
2017-03-18T05:44:24.403Z,8.14
2017-03-18T05:45:35.396Z,8.1
2017-03-18T05:46:46.384Z,8.09
2017-03-18T05:47:57.381Z,8.13
2017-03-18T05:49:08.371Z,8.09
2017-03-18T05:50:19.416Z,8.16
2017-03-18T05:51:30.410Z,8.25
2017-03-18T05:52:41.603Z,8.26
2017-03-18T05:53:52.599Z,8.19
2017-03-18T05:55:03.797Z,8.19
2017-03-18T05:56:14.780Z,8.24
2017-03-18T05:57:25.773Z,8.26
2017-03-18T05:58:36.768Z,8.25
2017-03-18T05:59:47.767Z,8.25
2017-03-18T06:00:59.014Z,8.32
2017-03-18T06:02:10.006Z,8.28
2017-03-18T06:03:21.004Z,8.26
2017-03-18T06:04:32.006Z,8.35
2017-03-18T06:05:43.397Z,8.31
2017-03-18T06:06:54.438Z,8.35
2017-03-18T06:08:05.423Z,8.35
2017-03-18T06:09:16.419Z,8.42
2017-03-18T06:10:27.414Z,8.35
2017-03-18T06:11:38.412Z,8.44
2017-03-18T06:12:49.415Z,8.49
2017-03-18T06:14:00.605Z,8.43
2017-03-18T06:15:11.598Z,8.47
2017-03-18T06:16:22.583Z,8.44
2017-03-18T06:17:33.574Z,8.52
2017-03-18T06:18:44.815Z,8.58
2017-03-18T06:19:55.810Z,8.58
2017-03-18T06:21:06.803Z,8.6
2017-03-18T06:22:18.028Z,8.52
2017-03-18T06:23:29.052Z,8.57
2017-03-18T06:24:40.060Z,8.64
2017-03-18T06:25:51.050Z,8.57
2017-03-18T06:27:02.045Z,8.64
2017-03-18T06:28:13.292Z,8.61
2017-03-18T06:29:24.299Z,8.64
2017-03-18T06:30:35.286Z,8.76
2017-03-18T06:31:46.273Z,8.8
2017-03-18T06:32:57.270Z,8.76
2017-03-18T06:34:08.263Z,8.76
2017-03-18T06:35:19.269Z,8.76
2017-03-18T06:36:30.460Z,8.8
2017-03-18T06:37:41.451Z,8.77
2017-03-18T06:38:52.706Z,8.9
2017-03-18T06:40:03.702Z,8.98
2017-03-18T06:41:14.694Z,8.94
2017-03-18T06:42:25.681Z,9.03
2017-03-18T06:43:36.674Z,9.01
2017-03-18T06:44:47.921Z,9.09
2017-03-18T06:45:58.904Z,9.05
2017-03-18T06:47:09.885Z,9.11
2017-03-18T06:48:20.878Z,9.19
2017-03-18T06:49:32.319Z,9.05
2017-03-18T06:50:43.503Z,9.17
2017-03-18T06:51:54.493Z,9.08
2017-03-18T06:53:05.490Z,9.16
2017-03-18T06:54:16.482Z,9.12
2017-03-18T06:55:27.517Z,9.14
2017-03-18T06:56:38.515Z,9.16
2017-03-18T06:57:49.512Z,9.11
2017-03-18T06:59:00.536Z,9.21
2017-03-18T07:00:11.718Z,9.29
2017-03-18T07:01:22.710Z,9.26
2017-03-18T07:02:33.901Z,9.32
2017-03-18T07:03:44.885Z,9.34
2017-03-18T07:04:55.873Z,9.3
2017-03-18T07:06:06.860Z,9.34
2017-03-18T07:07:17.845Z,9.29
2017-03-18T07:08:28.835Z,9.3
2017-03-18T07:09:39.824Z,9.3
2017-03-18T07:10:51.018Z,9.38
2017-03-18T07:12:02.051Z,9.42
2017-03-18T07:13:13.097Z,9.5
2017-03-18T07:14:24.123Z,9.39
2017-03-18T07:15:35.119Z,9.42
2017-03-18T07:16:46.106Z,9.42
2017-03-18T07:17:57.097Z,9.48
2017-03-18T07:19:08.701Z,9.44
2017-03-18T07:20:20.087Z,9.52
2017-03-18T07:21:31.079Z,9.62
2017-03-18T07:22:42.136Z,9.59
2017-03-18T07:23:53.134Z,9.55
2017-03-18T07:25:04.337Z,9.59
2017-03-18T07:26:15.320Z,9.55
2017-03-18T07:27:26.303Z,9.53
2017-03-18T07:28:37.696Z,9.56
2017-03-18T07:29:48.688Z,9.53
2017-03-18T07:30:59.712Z,9.57
2017-03-18T07:32:10.706Z,9.55
2017-03-18T07:33:22.014Z,9.56
2017-03-18T07:34:33.010Z,9.64
2017-03-18T07:35:44.004Z,9.66
2017-03-18T07:36:54.999Z,9.66
2017-03-18T07:38:06.189Z,9.7
2017-03-18T07:39:17.393Z,9.7
2017-03-18T07:40:28.423Z,9.66
2017-03-18T07:41:39.407Z,9.66
2017-03-18T07:42:50.396Z,9.64
2017-03-18T07:44:01.450Z,9.8
2017-03-18T07:45:12.439Z,9.81
2017-03-18T07:46:23.426Z,9.74
2017-03-18T07:47:34.617Z,9.78
2017-03-18T07:48:45.627Z,9.81
2017-03-18T07:49:56.622Z,9.74
2017-03-18T07:51:07.610Z,9.78
2017-03-18T07:52:18.807Z,9.66
2017-03-18T07:53:29.807Z,9.74
2017-03-18T07:54:41.240Z,9.78
2017-03-18T07:55:52.292Z,9.81
2017-03-18T07:57:03.297Z,9.82
2017-03-18T07:58:14.292Z,9.63
2017-03-18T07:59:25.302Z,9.8
2017-03-18T08:00:36.492Z,9.7
2017-03-18T08:01:47.486Z,9.78
2017-03-18T08:02:58.683Z,9.66
2017-03-18T08:04:09.676Z,9.74
2017-03-18T08:05:20.722Z,9.64
2017-03-18T08:06:31.913Z,9.75
2017-03-18T08:07:42.903Z,9.74
2017-03-18T08:08:53.908Z,9.88
2017-03-18T08:10:04.920Z,9.78
2017-03-18T08:11:16.107Z,9.82
2017-03-18T08:12:27.300Z,9.77
2017-03-18T08:13:38.290Z,9.85
2017-03-18T08:14:49.296Z,9.82
2017-03-18T08:16:00.590Z,9.85
2017-03-18T08:17:11.576Z,9.88
2017-03-18T08:18:22.567Z,9.85
2017-03-18T08:19:33.775Z,9.82
2017-03-18T08:20:44.776Z,9.98
2017-03-18T08:21:55.765Z,10
2017-03-18T08:23:06.774Z,9.96
2017-03-18T08:24:17.778Z,9.96
2017-03-18T08:25:28.776Z,10
2017-03-18T08:26:39.762Z,10
2017-03-18T08:27:51.159Z,10
2017-03-18T08:29:02.157Z,10.07
2017-03-18T08:30:13.143Z,10.11
2017-03-18T08:31:24.185Z,10.11
2017-03-18T08:32:35.176Z,10.15
2017-03-18T08:33:46.181Z,10.11
2017-03-18T08:34:57.381Z,10.11
2017-03-18T08:36:08.373Z,10.15
2017-03-18T08:37:19.577Z,10.15
2017-03-18T08:38:30.576Z,10.11
2017-03-18T08:39:41.773Z,10.11
2017-03-18T08:40:52.764Z,10.1
2017-03-18T08:42:03.943Z,10.14
2017-03-18T08:43:14.930Z,10.05
2017-03-18T08:44:25.933Z,10.08
2017-03-18T08:45:36.934Z,10.14
2017-03-18T08:46:47.936Z,10.2
2017-03-18T08:47:58.937Z,10.11
2017-03-18T08:49:09.931Z,10.15
2017-03-18T08:50:20.927Z,10.13
2017-03-18T08:51:31.944Z,10.13
2017-03-18T08:52:42.991Z,10.11
2017-03-18T08:53:54.197Z,10.14
2017-03-18T08:55:05.194Z,10.11
2017-03-18T08:56:16.190Z,10.15
2017-03-18T08:57:27.184Z,10.14
2017-03-18T08:58:38.376Z,10.14
2017-03-18T08:59:49.368Z,10.13
2017-03-18T09:01:00.562Z,10.13
2017-03-18T09:02:11.548Z,10.13
2017-03-18T09:03:23.010Z,10.25
2017-03-18T09:04:34.000Z,10.18
2017-03-18T09:05:45.189Z,10.23
2017-03-18T09:06:56.586Z,10.29
2017-03-18T09:08:07.591Z,10.25
2017-03-18T09:09:18.590Z,10.33
2017-03-18T09:10:29.588Z,10.32
2017-03-18T09:11:40.581Z,10.38
2017-03-18T09:12:51.570Z,10.38
2017-03-18T09:14:02.825Z,10.52
2017-03-18T09:15:13.819Z,10.52
2017-03-18T09:16:24.822Z,10.57
2017-03-18T09:17:35.825Z,10.59
2017-03-18T09:18:46.824Z,10.69
2017-03-18T09:19:57.817Z,10.59
2017-03-18T09:21:09.010Z,10.65
2017-03-18T09:22:20.205Z,10.67
2017-03-18T09:23:31.197Z,10.67
2017-03-18T09:24:42.200Z,10.7
2017-03-18T09:25:53.198Z,10.7
2017-03-18T09:27:04.189Z,10.7
2017-03-18T09:28:15.192Z,10.72
2017-03-18T09:29:26.206Z,10.67
2017-03-18T09:30:37.198Z,10.67
2017-03-18T09:31:48.180Z,10.66
2017-03-18T09:32:59.179Z,10.7
2017-03-18T09:34:10.378Z,10.66
2017-03-18T09:35:21.600Z,10.67
2017-03-18T09:36:32.802Z,10.67
2017-03-18T09:37:43.807Z,10.65
2017-03-18T09:38:54.827Z,10.69
2017-03-18T09:40:06.083Z,10.69
2017-03-18T09:41:17.085Z,10.66
2017-03-18T09:42:28.475Z,10.58
2017-03-18T09:43:39.677Z,10.47
2017-03-18T09:44:50.679Z,10.41
2017-03-18T09:46:01.676Z,10.39
2017-03-18T09:47:12.873Z,10.42
2017-03-18T09:48:23.870Z,10.36
2017-03-18T09:49:35.276Z,10.47
2017-03-18T09:50:46.526Z,10.35
2017-03-18T09:51:57.525Z,10.36
2017-03-18T09:53:08.719Z,10.41
2017-03-18T09:54:19.723Z,10.52
2017-03-18T09:55:30.735Z,10.52
2017-03-18T09:56:41.732Z,10.58
2017-03-18T09:57:52.737Z,10.65
2017-03-18T09:59:03.734Z,10.72
2017-03-18T10:00:14.721Z,10.7
2017-03-18T10:01:25.766Z,10.67
2017-03-18T10:02:36.967Z,10.8
2017-03-18T10:03:47.968Z,10.72
2017-03-18T10:04:58.964Z,10.75
2017-03-18T10:06:09.963Z,10.92
2017-03-18T10:07:20.954Z,10.84
2017-03-18T10:08:31.952Z,10.85
2017-03-18T10:09:42.951Z,10.98
2017-03-18T10:10:53.942Z,10.98
2017-03-18T10:12:04.981Z,11.03
2017-03-18T10:13:15.983Z,11.09
2017-03-18T10:14:26.987Z,11.21
2017-03-18T10:15:38.191Z,11.28
2017-03-18T10:16:49.180Z,11.27
2017-03-18T10:18:00.173Z,11.26
2017-03-18T10:19:11.169Z,11.35
2017-03-18T10:20:22.172Z,11.38
2017-03-18T10:21:33.168Z,11.3
2017-03-18T10:22:44.160Z,11.38
2017-03-18T10:23:55.214Z,11.26
2017-03-18T10:25:06.249Z,11.26
2017-03-18T10:26:17.438Z,11.12
2017-03-18T10:27:28.841Z,11.15
2017-03-18T10:28:39.838Z,11.12
2017-03-18T10:29:50.844Z,11.13
2017-03-18T10:31:01.839Z,11.12
2017-03-18T10:32:12.838Z,11.08
2017-03-18T10:33:23.889Z,11.15
2017-03-18T10:34:34.898Z,11.23
2017-03-18T10:35:45.891Z,11.3
2017-03-18T10:36:56.882Z,11.35
2017-03-18T10:38:07.889Z,11.39
2017-03-18T10:39:18.907Z,11.43
2017-03-18T10:40:29.904Z,11.43
2017-03-18T10:41:40.902Z,11.46
2017-03-18T10:42:51.902Z,11.45
2017-03-18T10:44:02.954Z,11.45
2017-03-18T10:45:14.151Z,11.45
2017-03-18T10:46:25.553Z,11.61
2017-03-18T10:47:36.742Z,11.56
2017-03-18T10:48:47.745Z,11.59
2017-03-18T10:49:58.790Z,11.59
2017-03-18T10:51:09.786Z,11.52
2017-03-18T10:52:20.824Z,11.57
2017-03-18T10:53:31.822Z,11.56
2017-03-18T10:54:42.883Z,11.51
2017-03-18T10:55:54.084Z,11.46
2017-03-18T10:57:05.075Z,11.45
2017-03-18T10:58:16.075Z,11.42
2017-03-18T10:59:27.069Z,11.41
2017-03-18T11:00:38.271Z,11.49
2017-03-18T11:01:49.676Z,11.57
2017-03-18T11:03:00.893Z,11.56
2017-03-18T11:04:12.089Z,11.59
2017-03-18T11:05:23.098Z,11.53
2017-03-18T11:06:34.092Z,11.63
2017-03-18T11:07:45.089Z,11.53
2017-03-18T11:08:56.098Z,11.7
2017-03-18T11:10:07.094Z,11.78
2017-03-18T11:11:18.100Z,11.71
2017-03-18T11:12:29.086Z,11.81
2017-03-18T11:13:40.094Z,11.89
2017-03-18T11:14:51.299Z,12
2017-03-18T11:16:02.546Z,12.07
2017-03-18T11:17:13.544Z,12.11
2017-03-18T11:18:24.549Z,12.23
2017-03-18T11:19:35.546Z,12.34
2017-03-18T11:20:46.544Z,12.48
2017-03-18T11:21:57.534Z,12.55
2017-03-18T11:23:08.538Z,12.73
2017-03-18T11:24:19.557Z,12.92
2017-03-18T11:25:30.557Z,12.94
2017-03-18T11:26:41.812Z,12.95
2017-03-18T11:27:52.813Z,13.01
2017-03-18T11:29:03.814Z,13.09
2017-03-18T11:30:15.035Z,13.06
2017-03-18T11:31:26.031Z,12.91
2017-03-18T11:32:37.031Z,12.89
2017-03-18T11:33:48.031Z,12.84
2017-03-18T11:34:59.039Z,12.74
2017-03-18T11:36:10.038Z,12.77
2017-03-18T11:37:21.291Z,12.84
2017-03-18T11:38:32.295Z,12.81
2017-03-18T11:39:43.500Z,12.8
2017-03-18T11:40:54.497Z,12.89
2017-03-18T11:42:05.510Z,12.89
2017-03-18T11:43:16.510Z,12.89
2017-03-18T11:44:27.710Z,12.94
2017-03-18T11:45:38.913Z,12.84
2017-03-18T11:46:49.919Z,12.77
2017-03-18T11:48:01.168Z,12.73
2017-03-18T11:49:12.168Z,12.71
2017-03-18T11:50:23.172Z,12.77
2017-03-18T11:51:34.163Z,12.74
2017-03-18T11:52:45.168Z,12.83
2017-03-18T11:53:56.402Z,12.73
2017-03-18T11:55:07.403Z,12.76
2017-03-18T11:56:18.405Z,12.69
2017-03-18T11:57:29.411Z,12.76
2017-03-18T11:58:40.415Z,12.83
2017-03-18T11:59:51.697Z,12.89
2017-03-18T12:01:02.692Z,12.81
2017-03-18T12:02:13.694Z,12.81
2017-03-18T12:03:24.723Z,12.81
2017-03-18T12:04:35.719Z,12.83
2017-03-18T12:05:46.712Z,12.89
2017-03-18T12:06:57.714Z,12.92
2017-03-18T12:08:08.710Z,12.88
2017-03-18T12:09:19.763Z,12.89
2017-03-18T12:10:30.782Z,12.91
2017-03-18T12:11:41.826Z,12.77
2017-03-18T12:12:52.843Z,12.69
2017-03-18T12:14:03.862Z,12.74
2017-03-18T12:15:14.868Z,12.78
2017-03-18T12:16:25.870Z,12.83
2017-03-18T12:17:36.870Z,12.86
2017-03-18T12:18:47.879Z,12.83
2017-03-18T12:19:59.145Z,12.88
2017-03-18T12:21:10.139Z,12.92
2017-03-18T12:22:21.146Z,12.91
2017-03-18T12:23:32.155Z,12.92
2017-03-18T12:24:43.150Z,12.91
2017-03-18T12:25:54.145Z,12.92
2017-03-18T12:27:05.179Z,12.89
2017-03-18T12:28:16.377Z,13.03
2017-03-18T12:29:27.385Z,13.01
2017-03-18T12:30:38.384Z,12.98
2017-03-18T12:31:49.385Z,13.06
2017-03-18T12:33:00.386Z,12.98
2017-03-18T12:34:11.393Z,12.86
2017-03-18T12:35:22.654Z,12.94
2017-03-18T12:36:33.647Z,12.92
2017-03-18T12:37:44.851Z,12.81
2017-03-18T12:38:56.086Z,13.01
2017-03-18T12:40:07.100Z,13.11
2017-03-18T12:41:18.320Z,13.24
2017-03-18T12:42:29.322Z,13.28
2017-03-18T12:43:40.328Z,13.32
2017-03-18T12:44:51.572Z,13.27
2017-03-18T12:46:02.579Z,13.35
2017-03-18T12:47:13.833Z,13.45
2017-03-18T12:48:25.032Z,13.42
2017-03-18T12:49:36.039Z,13.37
2017-03-18T12:50:47.049Z,13.31
2017-03-18T12:51:58.084Z,13.35
2017-03-18T12:53:09.081Z,13.31
2017-03-18T12:54:20.080Z,13.28
2017-03-18T12:55:31.088Z,13.21
2017-03-18T12:56:42.132Z,13.2
2017-03-18T12:57:53.336Z,13.16
2017-03-18T12:59:04.340Z,13.06
2017-03-18T13:00:15.343Z,13.03
2017-03-18T13:01:26.543Z,12.99
2017-03-18T13:02:37.741Z,13.06
2017-03-18T13:03:48.749Z,13.03
2017-03-18T13:04:59.754Z,12.91
2017-03-18T13:06:10.749Z,12.89
2017-03-18T13:07:21.993Z,12.84
2017-03-18T13:08:33.201Z,12.88
2017-03-18T13:09:44.205Z,12.8
2017-03-18T13:10:55.393Z,12.73
2017-03-18T13:12:06.432Z,12.76
2017-03-18T13:13:17.427Z,12.73
2017-03-18T13:14:28.433Z,12.74
2017-03-18T13:15:39.430Z,12.84
2017-03-18T13:16:50.432Z,12.83
2017-03-18T13:18:01.484Z,12.78
2017-03-18T13:19:12.510Z,12.73
2017-03-18T13:20:23.723Z,12.73
2017-03-18T13:21:34.718Z,12.77
2017-03-18T13:22:45.719Z,12.84
2017-03-18T13:23:56.730Z,12.91
2017-03-18T13:25:07.935Z,12.89
2017-03-18T13:26:18.946Z,12.91
2017-03-18T13:27:29.946Z,12.86
2017-03-18T13:28:40.941Z,12.91
2017-03-18T13:29:51.929Z,12.95
2017-03-18T13:31:02.924Z,12.83
2017-03-18T13:32:13.918Z,12.73
2017-03-18T13:33:24.921Z,12.63
2017-03-18T13:34:35.923Z,12.61
2017-03-18T13:35:46.974Z,12.56
2017-03-18T13:36:57.976Z,12.58
2017-03-18T13:38:09.176Z,12.61
2017-03-18T13:39:20.173Z,12.45
2017-03-18T13:40:31.184Z,12.58
2017-03-18T13:41:42.189Z,12.53
2017-03-18T13:42:53.184Z,12.4
2017-03-18T13:44:04.398Z,12.41
2017-03-18T13:45:15.405Z,12.4
2017-03-18T13:46:26.393Z,12.41
2017-03-18T13:47:37.396Z,12.38
2017-03-18T13:48:48.397Z,12.41
2017-03-18T13:49:59.406Z,12.47
2017-03-18T13:51:10.711Z,12.41
2017-03-18T13:52:21.709Z,12.41
2017-03-18T13:53:32.707Z,12.43
2017-03-18T13:54:43.909Z,12.43
2017-03-18T13:55:55.163Z,12.37
2017-03-18T13:57:06.380Z,12.31
2017-03-18T13:58:17.377Z,12.36
2017-03-18T13:59:28.379Z,12.25
2017-03-18T14:00:39.674Z,12.26
2017-03-18T14:01:50.677Z,12.22
2017-03-18T14:03:01.670Z,12.13
2017-03-18T14:04:12.702Z,12.11
2017-03-18T14:05:23.707Z,12.13
2017-03-18T14:06:34.704Z,12.04
2017-03-18T14:07:45.700Z,12.13
2017-03-18T14:08:56.701Z,12.15
2017-03-18T14:10:07.701Z,12.13
2017-03-18T14:11:18.948Z,12.15
2017-03-18T14:12:29.943Z,12.07
2017-03-18T14:13:40.944Z,12.19
2017-03-18T14:14:51.942Z,12.1
2017-03-18T14:16:02.939Z,12.07
2017-03-18T14:17:14.138Z,12.11
2017-03-18T14:18:25.334Z,12.11
2017-03-18T14:19:36.389Z,12.13
2017-03-18T14:20:47.388Z,12.15
2017-03-18T14:21:58.384Z,12.16
2017-03-18T14:23:09.630Z,12.01
2017-03-18T14:24:20.642Z,12
2017-03-18T14:25:31.653Z,12
2017-03-18T14:26:42.669Z,11.89
2017-03-18T14:27:53.886Z,11.89
2017-03-18T14:29:04.881Z,12.05
2017-03-18T14:30:15.878Z,11.97
2017-03-18T14:31:27.072Z,11.91
2017-03-18T14:32:38.318Z,12
2017-03-18T14:33:49.331Z,11.91
2017-03-18T14:35:00.340Z,11.95
2017-03-18T14:36:11.332Z,11.89
2017-03-18T14:37:22.347Z,11.81
2017-03-18T14:38:33.338Z,11.82
2017-03-18T14:39:44.544Z,11.75
2017-03-18T14:40:55.536Z,11.81
2017-03-18T14:42:06.769Z,11.78
2017-03-18T14:43:18.019Z,11.86
2017-03-18T14:44:29.026Z,11.76
2017-03-18T14:45:40.022Z,11.75
2017-03-18T14:46:51.016Z,11.71
2017-03-18T14:48:02.021Z,11.7
2017-03-18T14:49:13.014Z,11.73
2017-03-18T14:50:24.011Z,11.78
2017-03-18T14:51:35.008Z,11.76
2017-03-18T14:52:46.039Z,11.71
2017-03-18T14:53:57.281Z,11.76
2017-03-18T14:55:08.475Z,11.78
2017-03-18T14:56:19.477Z,11.76
2017-03-18T14:57:30.479Z,11.76
2017-03-18T14:58:41.480Z,11.73
2017-03-18T14:59:52.688Z,11.76
2017-03-18T15:01:03.684Z,11.75
2017-03-18T15:02:14.680Z,11.76
2017-03-18T15:03:25.877Z,11.79
2017-03-18T15:04:37.070Z,11.81
2017-03-18T15:05:48.323Z,11.82
2017-03-18T15:06:59.322Z,11.78
2017-03-18T15:08:10.320Z,11.79
2017-03-18T15:09:21.331Z,11.82
2017-03-18T15:10:32.323Z,11.88
2017-03-18T15:11:43.363Z,11.84
2017-03-18T15:12:54.562Z,11.85
2017-03-18T15:14:05.566Z,11.86
2017-03-18T15:15:16.571Z,11.88
2017-03-18T15:16:27.575Z,11.89
2017-03-18T15:17:38.785Z,11.85
2017-03-18T15:18:50.194Z,11.82
2017-03-18T15:20:01.198Z,11.91
2017-03-18T15:21:12.234Z,11.91
2017-03-18T15:22:23.256Z,12.04
2017-03-18T15:23:34.267Z,12.07
2017-03-18T15:24:45.266Z,12.03
2017-03-18T15:25:56.474Z,12
2017-03-18T15:27:07.674Z,12.01
2017-03-18T15:28:18.672Z,12.08
2017-03-18T15:29:29.676Z,12.1
2017-03-18T15:30:40.678Z,12.08
2017-03-18T15:31:51.758Z,12.1
2017-03-18T15:33:02.746Z,12.08
2017-03-18T15:34:13.785Z,12.08
2017-03-18T15:35:24.983Z,12.05